Time;durP1;ratioP1;P1;durP2;ratioP2;P2;SDS_P1;SDS_P2;PMS_P1;PMS_P2;Temp;Humidity;BMP_temperature;BMP_pressure;BME280_temperature;BME280_humidity;BME280_pressure;Samples;Min_cycle;Max_cycle;Signal;HPM_P1;HPM_P2
2022/07/11 00:00:19;;;;;;;6.67;1.67;;;;;;;12.36;79.90;100891.03;1701538;82;25815;-65
2022/07/11 00:02:45;;;;;;;9.28;1.87;;;;;;;12.34;79.89;100889.76;1704490;82;25723;-65
2022/07/11 00:05:11;;;;;;;4.75;1.57;;;;;;;12.32;79.88;100897.02;1702177;82;98739;-63
2022/07/11 00:07:38;;;;;;;11.25;2.02;;;;;;;12.28;79.82;100893.20;1705411;82;26306;-63
2022/07/11 00:10:05;;;;;;;6.62;2.12;;;;;;;12.27;79.82;100894.14;1706473;82;99156;-63
2022/07/11 00:12:31;;;;;;;6.92;1.70;;;;;;;12.25;79.80;100896.03;1709283;82;25931;-65
2022/07/11 00:14:57;;;;;;;6.87;1.80;;;;;;;12.22;79.76;100897.05;1701552;82;25299;-63
2022/07/11 00:17:23;;;;;;;7.35;2.15;;;;;;;12.21;79.85;100890.41;1698841;82;98819;-63
2022/07/11 00:19:49;;;;;;;5.62;1.80;;;;;;;12.19;79.76;100883.75;1708019;82;25738;-63
2022/07/11 00:22:18;;;;;;;4.62;1.87;;;;;;;12.17;79.79;100888.33;1705987;82;98872;-65
2022/07/11 00:24:43;;;;;;;6.62;1.50;;;;;;;12.14;79.81;100892.97;1700665;82;26440;-63
2022/07/11 00:27:10;;;;;;;9.53;1.75;;;;;;;12.13;79.76;100891.22;1702581;82;26036;-63
2022/07/11 00:29:36;;;;;;;10.82;1.95;;;;;;;12.11;79.75;100887.27;1709298;82;98689;-63
2022/07/11 00:32:02;;;;;;;7.80;1.95;;;;;;;12.10;79.73;100884.64;1712985;82;26914;-63
2022/07/11 00:34:29;;;;;;;5.33;1.60;;;;;;;12.08;79.72;100874.44;1704731;82;98714;-63
2022/07/11 00:36:55;;;;;;;10.70;1.55;;;;;;;12.08;79.63;100873.09;1704496;82;25865;-64
2022/07/11 00:39:21;;;;;;;4.70;1.70;;;;;;;12.06;79.59;100877.67;1704624;82;25832;-63
2022/07/11 00:41:47;;;;;;;5.55;1.60;;;;;;;12.06;79.55;100866.92;1709248;82;97666;-63
2022/07/11 00:44:14;;;;;;;14.18;2.25;;;;;;;12.03;79.52;100863.44;1707347;82;25775;-63
2022/07/11 00:46:41;;;;;;;6.03;1.45;;;;;;;12.01;79.41;100868.00;1700795;82;98994;-63
2022/07/11 00:49:07;;;;;;;7.70;1.85;;;;;;;12.01;79.38;100860.41;1706812;82;25818;-63
2022/07/11 00:51:33;;;;;;;5.55;1.80;;;;;;;12.00;79.33;100858.67;1706004;82;98831;-63
2022/07/11 00:54:00;;;;;;;5.83;1.87;;;;;;;11.98;79.33;100861.90;1701053;82;27547;-65
2022/07/11 00:56:29;;;;;;;8.53;1.55;;;;;;;11.96;79.35;100861.97;1704544;82;27830;-63
2022/07/11 00:58:57;;;;;;;7.50;1.40;;;;;;;11.97;79.35;100843.56;1701747;82;98853;-63
2022/07/11 01:01:23;;;;;;;5.87;1.30;;;;;;;11.97;79.23;100848.94;1709153;82;25939;-63
2022/07/11 01:03:49;;;;;;;4.83;1.55;;;;;;;11.96;79.18;100840.95;1704119;82;98822;-64
2022/07/11 01:06:19;;;;;;;5.67;1.52;;;;;;;11.95;79.24;100840.08;1708638;82;29518;-63
2022/07/11 01:08:45;;;;;;;7.53;1.60;;;;;;;11.95;79.16;100837.39;1690561;83;25940;-63
2022/07/11 01:11:15;;;;;;;15.08;1.80;;;;;;;11.94;79.01;100839.67;1674455;84;98784;-63
2022/07/11 01:13:40;;;;;;;7.97;1.55;;;;;;;11.94;78.94;100840.15;1681024;84;25790;-64
2022/07/11 01:16:16;;;;;;;5.05;2.10;;;;;;;11.93;78.90;100837.93;1682871;84;99010;-63
2022/07/11 01:18:47;;;;;;;7.47;1.57;;;;;;;11.92;78.79;100837.53;1684941;84;27523;-63
2022/07/11 01:21:31;;;;;;;4.55;1.47;;;;;;;11.92;78.78;100846.06;1682332;83;26001;-63
2022/07/11 01:24:00;;;;;;;7.12;1.42;;;;;;;11.90;78.72;100836.73;1678180;84;98214;-64
2022/07/11 01:26:27;;;;;;;6.83;2.00;;;;;;;11.90;78.72;100838.55;1688004;84;26322;-63
2022/07/11 01:28:57;;;;;;;5.45;1.45;;;;;;;11.86;78.60;100843.19;1684283;84;98748;-63
2022/07/11 01:34:03;;;;;;;9.25;1.37;;;;;;;11.88;78.54;100845.33;1852992;75;25586;-63
2022/07/11 01:36:29;;;;;;;4.15;1.82;;;;;;;11.82;78.45;100846.95;1753706;80;25860;-63
2022/07/11 01:38:55;;;;;;;6.40;1.70;;;;;;;11.80;78.41;100840.77;1759687;80;27627;-63
2022/07/11 01:41:20;;;;;;;7.40;1.10;;;;;;;11.78;78.40;100844.47;1756495;79;98805;-63
2022/07/11 01:43:46;;;;;;;4.08;1.47;;;;;;;11.78;78.39;100837.28;1753063;79;25936;-63
2022/07/11 01:46:12;;;;;;;6.45;1.60;;;;;;;11.77;78.35;100843.59;1756687;79;98975;-63
2022/07/11 01:48:38;;;;;;;10.28;1.65;;;;;;;11.75;78.28;100837.39;1727329;81;25752;-63
2022/07/11 01:51:04;;;;;;;13.20;1.90;;;;;;;11.72;78.28;100840.22;1728521;81;27473;-64
2022/07/11 01:53:30;;;;;;;5.65;1.50;;;;;;;11.70;78.26;100841.63;1708651;81;98982;-64
2022/07/11 01:55:56;;;;;;;5.87;1.00;;;;;;;11.69;78.22;100838.54;1727324;81;26613;-64
2022/07/11 01:58:22;;;;;;;12.18;2.25;;;;;;;11.68;78.27;100836.80;1727257;79;99331;-64
2022/07/11 02:00:48;;;;;;;8.45;1.60;;;;;;;11.68;78.24;100842.64;1762957;79;26395;-64
2022/07/11 02:03:18;;;;;;;14.30;1.65;;;;;;;11.69;78.25;100841.70;1765634;79;25937;-64
2022/07/11 02:05:48;;;;;;;5.33;1.45;;;;;;;11.67;78.12;100842.23;1725304;80;99478;-64
2022/07/11 02:08:17;;;;;;;10.63;1.47;;;;;;;11.64;78.13;100842.38;1735914;82;25720;-64
2022/07/11 02:10:50;;;;;;;6.60;1.45;;;;;;;11.61;78.10;100831.30;1721222;80;98158;-64
2022/07/11 02:13:25;;;;;;;8.20;2.17;;;;;;;11.58;78.09;100836.80;1750372;79;25706;-64
2022/07/11 02:15:58;;;;;;;5.20;1.60;;;;;;;11.53;78.05;100833.45;1757930;79;98150;-64
2022/07/11 02:18:28;;;;;;;18.80;2.15;;;;;;;11.48;78.15;100837.28;1765893;79;25796;-64
2022/07/11 02:20:55;;;;;;;7.92;2.08;;;;;;;11.42;78.15;100829.49;1757847;79;25851;-63
2022/07/11 02:23:21;;;;;;;9.55;2.08;;;;;;;11.37;78.15;100831.91;1760329;79;99025;-63
2022/07/11 02:25:48;;;;;;;4.97;1.30;;;;;;;11.34;78.22;100837.41;1760734;79;25852;-63
2022/07/11 02:28:14;;;;;;;19.50;2.10;;;;;;;11.31;78.26;100838.02;1734862;80;99215;-63
2022/07/11 02:30:44;;;;;;;6.35;1.47;;;;;;;11.30;78.32;100834.92;1720037;81;25825;-64
2022/07/11 02:33:13;;;;;;;8.70;1.60;;;;;;;11.28;78.24;100843.52;1704624;81;26557;-64
2022/07/11 02:35:38;;;;;;;9.05;1.27;;;;;;;11.26;78.23;100844.92;1673955;83;98618;-63
2022/07/11 02:38:04;;;;;;;9.48;1.75;;;;;;;11.24;78.25;100845.92;1730058;81;26219;-63
2022/07/11 02:40:30;;;;;;;8.03;1.52;;;;;;;11.22;78.28;100836.59;1742682;78;98974;-63
2022/07/11 02:42:55;;;;;;;6.45;1.60;;;;;;;11.20;78.30;100842.50;1773322;78;25886;-63
2022/07/11 02:45:22;;;;;;;9.68;1.42;;;;;;;11.18;78.28;100840.81;1769481;78;25846;-64
2022/07/11 02:47:48;;;;;;;4.83;1.32;;;;;;;11.15;78.39;100851.68;1778577;78;98908;-64
2022/07/11 02:50:15;;;;;;;8.60;1.42;;;;;;;11.10;78.33;100837.13;1771019;78;25744;-63
2022/07/11 02:52:42;;;;;;;5.55;1.27;;;;;;;11.07;78.37;100834.56;1778166;78;98875;-66
2022/07/11 02:55:12;;;;;;;12.30;2.00;;;;;;;11.04;78.42;100845.42;1766543;78;26021;-63
2022/07/11 02:57:39;;;;;;;3.45;1.45;;;;;;;11.02;78.43;100847.30;1775222;78;25741;-64
2022/07/11 03:00:10;;;;;;;4.53;1.67;;;;;;;10.98;78.43;100852.39;1741401;80;99116;-63
2022/07/11 03:02:40;;;;;;;5.30;1.72;;;;;;;10.94;78.49;100850.30;1739537;80;25836;-63
2022/07/11 03:05:07;;;;;;;3.70;1.40;;;;;;;10.91;78.52;100849.09;1734747;79;99329;-64
2022/07/11 03:07:33;;;;;;;8.43;1.25;;;;;;;10.90;78.56;100852.70;1724616;81;25726;-63
2022/07/11 03:09:59;;;;;;;8.33;2.08;;;;;;;10.89;78.59;100852.77;1717592;81;98916;-64
2022/07/11 03:12:25;;;;;;;11.18;2.25;;;;;;;10.88;78.66;100855.91;1729218;80;26207;-63
2022/07/11 03:14:51;;;;;;;8.03;1.57;;;;;;;10.88;78.72;100860.41;1740832;79;25928;-63
2022/07/11 03:17:18;;;;;;;8.83;1.67;;;;;;;10.84;78.74;100859.66;1731442;80;98753;-63
2022/07/11 03:19:46;;;;;;;8.40;1.70;;;;;;;10.84;78.98;100862.81;1737206;80;25812;-63
2022/07/11 03:22:13;;;;;;;10.00;1.70;;;;;;;10.84;79.05;100862.81;1736645;80;98129;-63
2022/07/11 03:24:42;;;;;;;7.83;2.25;;;;;;;10.85;79.16;100868.58;1736943;80;25856;-63
2022/07/11 03:27:08;;;;;;;7.72;2.40;;;;;;;10.85;79.20;100857.85;1725500;80;25798;-66
2022/07/11 03:29:36;;;;;;;5.47;1.17;;;;;;;10.83;79.16;100859.25;1706382;81;99136;-63
2022/07/11 03:32:04;;;;;;;6.83;1.32;;;;;;;10.83;79.23;100857.91;1710703;81;25802;-63
2022/07/11 03:34:30;;;;;;;6.53;1.60;;;;;;;10.84;79.24;100862.81;1695739;82;99159;-63
2022/07/11 03:36:56;;;;;;;6.87;2.12;;;;;;;10.84;79.38;100862.81;1739578;80;25668;-65
2022/07/11 03:39:22;;;;;;;13.95;2.17;;;;;;;10.85;79.46;100864.55;1717416;81;25667;-64
2022/07/11 03:41:48;;;;;;;7.05;2.17;;;;;;;10.86;79.56;100863.63;1718024;81;99163;-63
2022/07/11 03:44:14;;;;;;;8.65;1.70;;;;;;;10.88;79.52;100866.64;1722219;81;25831;-65
2022/07/11 03:46:42;;;;;;;7.80;1.82;;;;;;;10.92;79.54;100868.73;1716302;81;98954;-64
2022/07/11 03:49:08;;;;;;;5.62;1.57;;;;;;;10.94;79.54;100856.13;1719490;81;26401;-64
2022/07/11 03:51:34;;;;;;;5.62;1.80;;;;;;;10.96;79.58;100856.94;1712525;82;25716;-66
2022/07/11 03:54:00;;;;;;;11.55;2.10;;;;;;;10.98;79.59;100865.33;1709365;82;98771;-64
2022/07/11 03:56:26;;;;;;;8.08;2.20;;;;;;;11.01;79.75;100862.98;1732011;81;25843;-64
2022/07/11 03:58:52;;;;;;;7.05;2.15;;;;;;;11.05;79.85;100858.77;1721666;81;98684;-64
2022/07/11 04:01:19;;;;;;;6.30;1.47;;;;;;;11.12;79.90;100864.75;1722551;81;26206;-64
2022/07/11 04:03:47;;;;;;;17.42;2.37;;;;;;;11.15;79.86;100859.26;1722153;81;25752;-64
2022/07/11 04:06:14;;;;;;;14.47;1.65;;;;;;;11.20;79.82;100858.59;1721934;81;99398;-66
2022/07/11 04:08:42;;;;;;;7.87;2.08;;;;;;;11.26;79.85;100855.65;1713494;81;25722;-64
2022/07/11 04:11:08;;;;;;;16.73;3.33;;;;;;;11.31;79.84;100863.03;1700495;82;98692;-64
2022/07/11 04:13:34;;;;;;;7.42;1.70;;;;;;;11.36;79.82;100858.34;1720390;81;27319;-64
2022/07/11 04:16:00;;;;;;;6.25;1.85;;;;;;;11.43;79.91;100856.73;1721633;81;98898;-64
2022/07/11 04:18:27;;;;;;;14.63;2.60;;;;;;;11.49;79.96;100852.44;1723540;81;27824;-64
2022/07/11 04:20:53;;;;;;;9.88;1.70;;;;;;;11.56;80.00;100845.86;1720993;81;25833;-63
2022/07/11 04:23:19;;;;;;;9.00;1.60;;;;;;;11.64;80.02;100855.33;1724088;81;98598;-64
2022/07/11 04:25:45;;;;;;;8.85;1.77;;;;;;;11.70;79.98;100857.73;1715982;81;26188;-66
2022/07/11 04:28:10;;;;;;;7.08;1.67;;;;;;;11.76;79.99;100859.28;1735342;80;97983;-65
2022/07/11 04:30:36;;;;;;;7.60;1.77;;;;;;;11.83;80.13;100851.85;1718307;81;27459;-64
2022/07/11 04:33:02;;;;;;;16.77;2.75;;;;;;;11.88;80.04;100856.08;1738724;80;25836;-64
2022/07/11 04:35:30;;;;;;;9.13;2.02;;;;;;;11.91;80.14;100850.56;1704260;81;98926;-66
2022/07/11 04:37:57;;;;;;;9.73;2.20;;;;;;;11.98;80.19;100856.05;1736324;80;25835;-66
2022/07/11 04:40:23;;;;;;;7.78;1.47;;;;;;;12.04;80.19;100850.87;1733803;80;98934;-64
2022/07/11 04:42:50;;;;;;;13.38;2.20;;;;;;;12.10;80.12;100854.62;1737711;80;27399;-64
2022/07/11 04:45:16;;;;;;;6.45;1.62;;;;;;;12.14;80.04;100852.19;1731194;80;26557;-64
2022/07/11 04:47:42;;;;;;;15.00;2.27;;;;;;;12.21;80.09;100864.40;1737905;80;98728;-64
2022/07/11 04:50:09;;;;;;;8.55;1.50;;;;;;;12.24;80.06;100853.50;1727719;80;26279;-65
2022/07/11 04:52:35;;;;;;;7.42;1.95;;;;;;;12.27;80.01;100851.14;1729222;80;98910;-64
2022/07/11 04:55:01;;;;;;;15.40;2.20;;;;;;;12.28;80.03;100855.11;1727319;80;27427;-64
2022/07/11 05:00:12;;;;;;;4.58;1.50;;;;;;;12.36;79.94;100848.02;1784583;75;26265;-65
2022/07/11 05:02:38;;;;;;;13.20;2.22;;;;;;;12.34;80.03;100852.60;1771651;79;25519;-65
2022/07/11 05:05:06;;;;;;;6.35;1.45;;;;;;;12.34;80.02;100853.47;1763878;79;99322;-65
2022/07/11 05:07:32;;;;;;;13.62;1.72;;;;;;;12.37;79.98;100855.14;1767790;79;25751;-64
2022/07/11 05:09:58;;;;;;;12.18;2.17;;;;;;;12.39;79.97;100857.28;1763511;79;99110;-66
2022/07/11 05:12:24;;;;;;;13.40;2.60;;;;;;;12.44;79.97;100850.34;1766146;79;26489;-66
2022/07/11 05:14:49;;;;;;;8.05;2.10;;;;;;;12.48;80.03;100855.98;1764083;79;26248;-65
2022/07/11 05:17:15;;;;;;;11.70;2.33;;;;;;;12.51;80.05;100855.83;1745019;79;98759;-65
2022/07/11 05:19:41;;;;;;;11.30;2.17;;;;;;;12.54;80.03;100855.21;1739243;80;26020;-66
2022/07/11 05:22:07;;;;;;;9.77;2.10;;;;;;;12.54;80.05;100861.06;1757834;79;99075;-65
2022/07/11 05:24:33;;;;;;;5.97;1.90;;;;;;;12.59;80.03;100863.06;1772475;78;25886;-64
2022/07/11 05:26:59;;;;;;;6.30;2.10;;;;;;;12.63;79.98;100866.87;1783234;78;25793;-65
2022/07/11 05:29:24;;;;;;;14.30;1.95;;;;;;;12.64;79.97;100879.38;1778932;78;98783;-65
2022/07/11 05:31:52;;;;;;;10.38;1.85;;;;;;;12.65;79.90;100872.17;1777149;79;25860;-65
2022/07/11 05:34:18;;;;;;;8.78;1.67;;;;;;;12.65;79.91;100870.36;1770945;79;99139;-65
2022/07/11 05:36:44;;;;;;;7.08;1.90;;;;;;;12.70;79.87;100867.92;1766787;79;25703;-65
2022/07/11 05:39:10;;;;;;;9.45;1.60;;;;;;;12.71;79.89;100862.46;1768515;79;26589;-66
2022/07/11 05:41:36;;;;;;;7.80;2.17;;;;;;;12.78;79.89;100869.76;1772758;78;98780;-64
2022/07/11 05:44:02;;;;;;;7.37;2.25;;;;;;;12.81;79.94;100874.99;1773318;78;26652;-65
2022/07/11 05:46:27;;;;;;;13.43;1.95;;;;;;;12.87;79.89;100869.31;1721607;80;98810;-67
2022/07/11 05:48:53;;;;;;;13.10;2.25;;;;;;;12.92;79.90;100873.99;1788543;78;25806;-64
2022/07/11 05:51:19;;;;;;;10.03;1.60;;;;;;;13.00;79.93;100874.48;1794707;78;25787;-66
2022/07/11 05:53:45;;;;;;;9.18;2.25;;;;;;;13.09;79.94;100880.72;1794078;78;98856;-66
2022/07/11 05:56:11;;;;;;;11.05;2.52;;;;;;;13.24;80.02;100887.19;1793826;78;27724;-66
2022/07/11 05:58:36;;;;;;;11.22;1.92;;;;;;;13.36;79.95;100887.91;1776767;78;98968;-66
2022/07/11 06:01:04;;;;;;;8.28;1.90;;;;;;;13.51;79.97;100883.56;1734077;80;26006;-66
2022/07/11 06:03:29;;;;;;;7.87;2.50;;;;;;;13.61;79.86;100877.63;1731307;80;25840;-66
2022/07/11 06:05:55;;;;;;;13.95;2.05;;;;;;;13.70;79.85;100879.44;1737844;80;98607;-66
2022/07/11 06:11:07;;;;;;;9.28;1.22;;;;;;;13.85;79.76;100875.45;1729289;80;98696;-66
2022/07/11 06:13:33;;;;;;;11.38;2.30;;;;;;;13.95;79.67;100881.23;1730320;80;25733;-67
2022/07/11 06:15:59;;;;;;;6.20;1.60;;;;;;;14.02;79.61;100891.20;1743099;80;99118;-66
2022/07/11 06:18:25;;;;;;;15.93;2.10;;;;;;;14.09;79.49;100889.44;1747772;80;27597;-66
2022/07/11 06:20:51;;;;;;;7.62;2.33;;;;;;;14.12;79.34;100901.88;1725983;80;25434;-66
2022/07/11 06:23:17;;;;;;;12.88;1.98;;;;;;;14.17;79.38;100895.77;1740009;80;98713;-66
2022/07/11 06:25:43;;;;;;;6.78;1.57;;;;;;;14.21;79.29;100896.87;1752589;79;26120;-69
2022/07/11 06:28:08;;;;;;;9.48;1.98;;;;;;;14.27;79.26;100892.97;1731040;80;98884;-67
2022/07/11 06:30:36;;;;;;;11.55;1.65;;;;;;;14.36;79.22;100894.29;1727730;80;28061;-67
2022/07/11 06:33:03;;;;;;;6.83;1.95;;;;;;;14.43;79.16;100895.25;1724658;80;25792;-66
2022/07/11 06:35:30;;;;;;;7.35;1.70;;;;;;;14.52;79.08;100902.83;1725842;80;98005;-67
2022/07/11 06:37:56;;;;;;;12.82;2.00;;;;;;;14.50;78.91;100889.91;1731281;80;25774;-67
2022/07/11 06:40:23;;;;;;;10.03;1.60;;;;;;;14.51;78.87;100890.78;1724192;80;99183;-67
2022/07/11 06:42:49;;;;;;;5.05;1.40;;;;;;;14.57;78.83;100902.57;1732089;80;29646;-66
2022/07/11 06:45:16;;;;;;;12.90;2.08;;;;;;;14.65;78.78;100904.84;1727977;80;26799;-66
2022/07/11 06:47:43;;;;;;;9.75;2.10;;;;;;;14.72;78.73;100907.59;1731516;80;98833;-67
2022/07/11 06:50:09;;;;;;;12.55;1.57;;;;;;;14.76;78.52;100904.63;1734074;81;26338;-67
2022/07/11 06:52:35;;;;;;;9.03;1.67;;;;;;;14.83;78.51;100913.25;1725169;80;99078;-67
2022/07/11 06:55:01;;;;;;;11.45;1.37;;;;;;;14.89;78.51;100902.11;1729806;80;27501;-67
2022/07/11 06:57:27;;;;;;;9.75;1.87;;;;;;;14.99;78.40;100910.07;1727657;80;26668;-68
2022/07/11 06:59:53;;;;;;;13.08;1.87;;;;;;;15.10;78.34;100910.32;1737727;79;98708;-68
2022/07/11 07:02:20;;;;;;;14.83;1.98;;;;;;;15.24;78.34;100905.47;1750646;79;26004;-67
2022/07/11 07:04:46;;;;;;;7.92;1.65;;;;;;;15.36;78.20;100905.23;1742776;79;98950;-66
2022/07/11 07:07:11;;;;;;;11.15;1.70;;;;;;;15.43;77.99;100906.61;1761477;79;27432;-66
2022/07/11 07:09:37;;;;;;;8.98;1.25;;;;;;;15.38;77.67;100917.69;1758087;79;26072;-66
2022/07/11 07:12:04;;;;;;;5.03;1.57;;;;;;;15.39;77.57;100911.80;1751908;79;98672;-66
2022/07/11 07:14:29;;;;;;;11.73;2.45;;;;;;;15.46;77.60;100910.48;1761039;79;25821;-67
2022/07/11 07:16:55;;;;;;;5.80;1.40;;;;;;;15.58;77.45;100915.19;1754410;79;98800;-66
2022/07/11 07:19:21;;;;;;;5.92;1.27;;;;;;;15.69;77.37;100917.21;1745526;79;25722;-66
2022/07/11 07:21:47;;;;;;;12.95;1.77;;;;;;;15.76;77.14;100909.13;1756588;79;27214;-66
2022/07/11 07:24:13;;;;;;;6.92;1.52;;;;;;;15.78;76.93;100923.41;1759054;79;98593;-66
2022/07/11 07:26:39;;;;;;;10.98;1.80;;;;;;;15.86;76.89;100917.93;1764255;79;25832;-66
2022/07/11 07:29:05;;;;;;;7.12;1.45;;;;;;;15.90;76.55;100920.84;1755970;79;98865;-66
2022/07/11 07:31:30;;;;;;;13.78;1.92;;;;;;;15.84;76.13;100920.34;1758359;79;27382;-66
2022/07/11 07:33:56;;;;;;;4.72;1.60;;;;;;;15.84;76.24;100918.98;1754814;79;99042;-66
2022/07/11 07:36:22;;;;;;;5.67;1.47;;;;;;;15.88;76.09;100920.06;1763125;79;25813;-66
2022/07/11 07:38:48;;;;;;;3.98;1.65;;;;;;;15.86;75.76;100913.00;1760444;79;26574;-67
2022/07/11 07:41:15;;;;;;;6.70;1.00;;;;;;;15.83;75.55;100918.12;1758777;79;98801;-66
2022/07/11 07:43:43;;;;;;;9.78;2.05;;;;;;;15.84;75.63;100924.39;1761424;79;28174;-66
2022/07/11 07:46:10;;;;;;;10.15;1.27;;;;;;;15.90;75.65;100909.16;1754543;79;98785;-67
2022/07/11 07:48:38;;;;;;;7.15;1.67;;;;;;;16.01;75.51;100907.14;1763435;79;25780;-66
2022/07/11 07:51:04;;;;;;;5.78;1.55;;;;;;;16.09;75.35;100906.19;1761158;79;26053;-67
2022/07/11 07:53:31;;;;;;;4.25;0.93;;;;;;;16.09;75.16;100904.83;1755621;79;98775;-67
2022/07/11 07:55:56;;;;;;;6.05;1.15;;;;;;;16.21;75.07;100906.77;1755475;79;27547;-67
2022/07/11 07:58:22;;;;;;;3.83;1.55;;;;;;;16.29;75.07;100900.40;1760337;78;98801;-67
2022/07/11 08:03:32;;;;;;;4.83;0.90;;;;;;;16.67;74.51;100908.81;1777277;78;25712;-67
2022/07/11 08:05:58;;;;;;;2.72;0.93;;;;;;;16.69;73.78;100908.72;1771847;78;98689;-66
2022/07/11 08:08:24;;;;;;;3.62;1.10;;;;;;;16.67;73.36;100908.81;1762582;78;28063;-66
2022/07/11 08:10:51;;;;;;;6.45;1.00;;;;;;;16.63;73.15;100894.20;1774303;78;98688;-67
2022/07/11 08:13:19;;;;;;;2.30;1.10;;;;;;;16.79;73.23;100900.39;1760468;78;25746;-67
2022/07/11 08:15:46;;;;;;;4.62;1.15;;;;;;;17.06;73.02;100897.22;1769416;78;25729;-66
2022/07/11 08:18:13;;;;;;;4.33;0.90;;;;;;;17.16;72.50;100895.64;1775587;78;98471;-67
2022/07/11 08:20:39;;;;;;;7.67;1.50;;;;;;;17.28;72.30;100880.89;1771454;78;27400;-66
2022/07/11 08:23:04;;;;;;;8.15;1.52;;;;;;;17.38;71.88;100884.23;1774541;78;98652;-67
2022/07/11 08:25:31;;;;;;;1.90;0.60;;;;;;;17.52;71.77;100888.22;1771890;78;25766;-66
2022/07/11 08:27:57;;;;;;;5.72;0.90;;;;;;;17.60;71.19;100871.92;1761984;78;98956;-67
2022/07/11 08:30:23;;;;;;;2.52;0.68;;;;;;;17.65;71.06;100880.61;1778773;78;25887;-66
2022/07/11 08:32:48;;;;;;;2.67;0.70;;;;;;;17.69;69.53;100883.03;1776125;78;27360;-67
2022/07/11 08:35:15;;;;;;;3.75;1.55;;;;;;;17.68;69.18;100884.49;1764461;78;98766;-66
2022/07/11 08:37:42;;;;;;;9.00;0.55;;;;;;;17.63;68.08;100891.55;1734793;80;25857;-66
2022/07/11 08:40:09;;;;;;;7.58;0.72;;;;;;;17.55;67.49;100884.44;1761509;79;99043;-66
2022/07/11 08:42:45;;;;;;;3.90;1.05;;;;;;;17.46;65.77;100876.93;1764089;79;25725;-66
2022/07/11 08:45:13;;;;;;;5.17;0.70;;;;;;;17.28;64.37;100880.41;1756648;79;27491;-66
2022/07/11 08:47:40;;;;;;;4.08;0.80;;;;;;;17.14;64.65;100882.69;1761853;79;98644;-66
2022/07/11 08:50:09;;;;;;;8.30;1.10;;;;;;;17.07;65.14;100881.84;1765167;79;25729;-65
2022/07/11 08:52:37;;;;;;;4.97;0.93;;;;;;;17.01;64.85;100886.31;1758083;79;98881;-68
2022/07/11 08:55:08;;;;;;;6.67;0.98;;;;;;;16.94;64.93;100883.63;1728646;80;25898;-66
2022/07/11 08:57:37;;;;;;;3.25;1.22;;;;;;;16.90;65.71;100886.15;1761882;79;27430;-65
2022/07/11 09:00:08;;;;;;;4.17;1.85;;;;;;;17.04;66.16;100885.63;1759784;79;98572;-66
2022/07/11 09:02:34;;;;;;;6.12;1.00;;;;;;;17.28;66.30;100888.53;1734721;80;25729;-66
2022/07/11 09:05:05;;;;;;;5.37;1.65;;;;;;;17.47;66.05;100888.16;1740732;80;98698;-65
2022/07/11 09:07:43;;;;;;;6.67;1.80;;;;;;;17.38;65.59;100868.45;1741089;80;26559;-65
2022/07/11 09:10:09;;;;;;;2.20;0.50;;;;;;;17.31;65.80;100883.39;1738094;80;98845;-64
2022/07/11 09:12:34;;;;;;;4.30;0.60;;;;;;;17.17;65.06;100878.41;1739466;80;26176;-65
2022/07/11 09:15:01;;;;;;;5.12;1.02;;;;;;;16.83;64.40;100882.98;1739686;80;25777;-68
2022/07/11 09:17:30;;;;;;;5.87;1.00;;;;;;;16.60;64.84;100880.38;1734021;80;98614;-65
2022/07/11 09:19:56;;;;;;;6.50;1.55;;;;;;;16.47;65.31;100878.08;1741746;80;25782;-66
2022/07/11 09:25:24;;;;;;;6.30;1.12;;;;;;;16.22;66.16;100889.09;1743719;80;25733;-67
2022/07/11 09:28:06;;;;;;;7.97;1.50;;;;;;;16.19;66.62;100897.41;1741357;80;25849;-66
2022/07/11 09:30:39;;;;;;;11.93;1.02;;;;;;;16.20;66.96;100896.92;1737021;80;98538;-66
2022/07/11 09:33:09;;;;;;;2.98;1.05;;;;;;;16.30;67.39;100883.69;1744412;80;26112;-66
2022/07/11 09:35:39;;;;;;;6.45;1.10;;;;;;;16.45;67.68;100893.05;1734794;80;98623;-66
2022/07/11 09:38:08;;;;;;;6.47;1.02;;;;;;;16.53;67.95;100878.55;1743577;80;25760;-66
2022/07/11 09:40:35;;;;;;;8.33;1.00;;;;;;;16.66;68.17;100874.59;1737031;80;98834;-66
2022/07/11 09:43:03;;;;;;;6.97;0.90;;;;;;;16.82;68.36;100873.11;1744986;80;25764;-67
2022/07/11 09:45:33;;;;;;;3.60;0.70;;;;;;;16.92;68.53;100883.72;1740854;80;26556;-67
2022/07/11 09:48:09;;;;;;;7.28;1.05;;;;;;;17.01;68.50;100883.12;1736243;80;99329;-67
2022/07/11 09:50:35;;;;;;;1.52;0.78;;;;;;;17.07;68.37;100878.64;1733878;80;26628;-67
2022/07/11 09:53:08;;;;;;;3.10;0.80;;;;;;;17.19;68.55;100875.12;1735632;80;98607;-67
2022/07/11 09:55:46;;;;;;;9.23;0.75;;;;;;;17.37;68.61;100877.55;1737125;80;25813;-67
2022/07/11 09:58:15;;;;;;;1.67;0.50;;;;;;;17.46;68.67;100882.35;1735685;80;26117;-66
2022/07/11 10:00:42;;;;;;;2.20;0.53;;;;;;;17.52;67.73;100910.39;1743248;79;98465;-65
2022/07/11 10:03:11;;;;;;;1.42;0.50;;;;;;;17.15;63.97;100908.80;1758583;79;26454;-65
2022/07/11 10:05:38;;;;;;;5.40;0.47;;;;;;;16.74;63.78;100913.34;1758595;79;98768;-66
2022/07/11 10:08:05;;;;;;;8.60;0.40;;;;;;;16.50;64.69;100915.76;1754601;79;25714;-65
2022/07/11 10:10:33;;;;;;;1.85;0.10;;;;;;;16.29;64.88;100915.76;1753574;79;98796;-65
2022/07/11 10:12:59;;;;;;;0.50;0.20;;;;;;;16.11;64.44;100915.94;1757034;79;28095;-65
2022/07/11 10:15:32;;;;;;;0.65;0.30;;;;;;;16.02;64.98;100914.29;1757641;79;26053;-64
2022/07/11 10:18:04;;;;;;;1.65;0.20;;;;;;;16.03;65.13;100918.25;1755791;79;98567;-67
2022/07/11 10:20:59;;;;;;;1.72;0.60;;;;;;;16.10;65.29;100911.98;1762956;79;26485;-65
2022/07/11 10:23:42;;;;;;;0.65;0.42;;;;;;;16.20;65.29;100915.85;1756617;79;98639;-67
2022/07/11 10:26:31;;;;;;;2.83;0.40;;;;;;;16.27;65.48;100914.50;1759172;79;27511;-64
2022/07/11 10:29:20;;;;;;;3.17;0.78;;;;;;;16.38;65.46;100911.99;1757554;79;98952;-65
2022/07/11 10:32:05;;;;;;;2.02;0.57;;;;;;;16.58;65.66;100922.91;1706220;82;26058;-65
2022/07/11 10:34:31;;;;;;;1.27;0.20;;;;;;;16.79;65.35;100916.62;1747627;79;98962;-65
2022/07/11 10:37:05;;;;;;;4.92;0.40;;;;;;;16.91;65.25;100910.91;1755388;79;25833;-66
2022/07/11 10:39:34;;;;;;;1.37;0.42;;;;;;;17.09;65.39;100920.52;1755573;79;27590;-66
2022/07/11 10:42:04;;;;;;;0.88;0.47;;;;;;;17.28;64.55;100917.47;1753656;79;98577;-65
2022/07/11 10:44:56;;;;;;;2.15;0.40;;;;;;;17.46;65.02;100917.09;1756173;79;25852;-65
2022/07/11 10:47:43;;;;;;;1.00;0.30;;;;;;;17.59;63.07;100919.84;1752658;79;98615;-67
2022/07/11 10:50:40;;;;;;;0.98;0.40;;;;;;;17.67;62.88;100924.28;1754084;78;26166;-66
2022/07/11 10:53:14;;;;;;;2.17;0.60;;;;;;;17.82;63.10;100920.52;1753187;79;98596;-66
2022/07/11 10:55:48;;;;;;;3.30;0.37;;;;;;;17.97;62.64;100919.08;1755328;79;25952;-65
2022/07/11 10:58:31;;;;;;;6.87;0.50;;;;;;;18.06;62.96;100935.58;1721900;79;25799;-66
2022/07/11 11:01:17;;;;;;;3.27;0.50;;;;;;;18.12;62.22;100928.86;1745124;79;98554;-66
2022/07/11 11:03:44;;;;;;;7.78;0.60;;;;;;;18.15;61.97;100920.02;1729232;80;25706;-65
2022/07/11 11:06:12;;;;;;;1.57;0.47;;;;;;;18.39;61.69;100921.93;1729492;80;98734;-65
2022/07/11 11:08:43;;;;;;;1.95;0.68;;;;;;;18.57;61.40;100924.68;1725210;80;25819;-65
2022/07/11 11:11:29;;;;;;;4.58;0.60;;;;;;;18.73;61.47;100920.40;1728705;80;98863;-65
2022/07/11 11:14:27;;;;;;;2.27;0.60;;;;;;;18.78;60.97;100938.58;1727460;80;26604;-65
2022/07/11 11:16:54;;;;;;;8.25;0.90;;;;;;;18.55;60.69;100932.06;1722818;80;98878;-65
2022/07/11 11:19:51;;;;;;;1.70;0.42;;;;;;;18.39;60.99;100939.08;1727385;80;29533;-66
2022/07/11 11:22:19;;;;;;;5.30;0.70;;;;;;;18.44;61.18;100940.11;1727507;80;25703;-66
2022/07/11 11:24:48;;;;;;;5.40;0.82;;;;;;;18.40;61.02;100919.59;1729076;80;98542;-65
2022/07/11 11:27:21;;;;;;;4.30;0.72;;;;;;;18.42;60.66;100929.85;1718494;80;26118;-66
2022/07/11 11:29:51;;;;;;;2.75;0.68;;;;;;;18.55;60.40;100930.71;1710106;80;98748;-67
2022/07/11 11:32:19;;;;;;;7.30;0.72;;;;;;;18.72;59.98;100927.67;1725705;80;28047;-65
2022/07/11 11:34:47;;;;;;;1.82;0.70;;;;;;;18.87;59.40;100937.91;1723548;80;99011;-66
2022/07/11 11:37:16;;;;;;;1.82;0.50;;;;;;;18.79;59.12;100930.81;1725637;80;25801;-66
2022/07/11 11:39:42;;;;;;;0.75;0.50;;;;;;;18.93;59.06;100927.95;1723075;80;25669;-66
2022/07/11 11:42:15;;;;;;;0.62;0.40;;;;;;;18.93;59.06;100927.95;1720810;80;98752;-65